createdAt,value
2023-04-21T00:02:22.151Z,99064.47
2023-04-21T00:05:28.013Z,99057.29
2023-04-21T00:08:36.479Z,99058.97
2023-04-21T00:11:42.849Z,99045.52
2023-04-21T00:14:48.555Z,99047.91
2023-04-21T00:17:55.095Z,99044.73
2023-04-21T00:21:00.491Z,99043.90
2023-04-21T00:24:06.441Z,99041.03
2023-04-21T00:27:11.977Z,99044.69
2023-04-21T00:30:18.660Z,99039.83
2023-04-21T00:33:24.803Z,99039.52
2023-04-21T00:36:25.173Z,99040.23
2023-04-21T00:39:30.395Z,99041.13
2023-04-21T00:42:36.077Z,99034.89
2023-04-21T00:45:41.752Z,99034.11
2023-04-21T00:48:46.398Z,99032.92
2023-04-21T00:51:51.637Z,99032.30
2023-04-21T00:54:57.128Z,99033.54
2023-04-21T00:58:03.235Z,99026.31
2023-04-21T01:01:08.801Z,99029.22
2023-04-21T01:04:16.660Z,99026.92
2023-04-21T01:07:22.237Z,99028.20
2023-04-21T01:10:28.203Z,99025.55
2023-04-21T01:13:36.528Z,99022.91
2023-04-21T01:16:44.297Z,99017.66
2023-04-21T01:19:56.033Z,99016.84
2023-04-21T01:23:01.605Z,99019.34
2023-04-21T01:26:08.250Z,99011.05
2023-04-21T01:29:13.277Z,99007.50
2023-04-21T01:32:24.921Z,99003.61
2023-04-21T01:35:31.063Z,99008.20
2023-04-21T01:38:36.526Z,99007.48
2023-04-21T01:41:42.249Z,99004.00
2023-04-21T01:44:41.807Z,98999.20
2023-04-21T01:47:48.469Z,99004.85
2023-04-21T01:50:55.092Z,98993.70
2023-04-21T01:54:00.960Z,98996.91
2023-04-21T01:57:06.018Z,99002.81
2023-04-21T02:00:10.991Z,98996.66
2023-04-21T02:03:16.729Z,99000.44
2023-04-21T02:06:24.435Z,98997.03
2023-04-21T02:09:30.022Z,98995.13
2023-04-21T02:12:35.316Z,98995.13
2023-04-21T02:15:41.452Z,98994.16
2023-04-21T02:18:46.988Z,98997.80
2023-04-21T02:21:53.828Z,98995.89
2023-04-21T02:25:00.387Z,98996.98
2023-04-21T02:28:06.426Z,98995.45
2023-04-21T02:31:12.101Z,98993.19
2023-04-21T02:34:11.575Z,98989.93
2023-04-21T02:37:17.352Z,98990.82
2023-04-21T02:40:24.988Z,98992.42
2023-04-21T02:43:31.753Z,98991.14
2023-04-21T02:46:37.264Z,98995.63
2023-04-21T02:49:42.770Z,98988.72
2023-04-21T02:52:51.759Z,98992.50
2023-04-21T02:55:56.542Z,98988.47
2023-04-21T02:59:01.998Z,98985.13
2023-04-21T03:02:06.987Z,98987.63
2023-04-21T03:05:12.984Z,98995.73
2023-04-21T03:08:18.662Z,98984.31
2023-04-21T03:11:24.137Z,98986.03
2023-04-21T03:14:30.212Z,98980.66
2023-04-21T03:17:35.703Z,98986.18
2023-04-21T03:20:41.058Z,98979.50
2023-04-21T03:23:47.182Z,98981.81
2023-04-21T03:26:55.023Z,98981.73
2023-04-21T03:30:01.570Z,98979.97
2023-04-21T03:33:06.433Z,98981.03
2023-04-21T03:36:15.838Z,98984.07
2023-04-21T03:39:20.845Z,98995.21
2023-04-21T03:42:25.932Z,98989.53
2023-04-21T03:45:30.523Z,98986.79
2023-04-21T03:48:36.298Z,98986.70
2023-04-21T03:51:41.895Z,98987.16
2023-04-21T03:54:47.291Z,98989.28
2023-04-21T03:57:54.865Z,98989.66
2023-04-21T04:01:01.413Z,98988.56
2023-04-21T04:04:07.225Z,98986.94
2023-04-21T04:07:15.006Z,98993.68
2023-04-21T04:10:20.266Z,98988.09
2023-04-21T04:13:19.209Z,98990.03
2023-04-21T04:16:25.079Z,98994.84
2023-04-21T04:19:31.561Z,98989.28
2023-04-21T04:22:37.266Z,98993.70
2023-04-21T04:25:44.097Z,98990.78
2023-04-21T04:28:49.213Z,98995.81
2023-04-21T04:31:54.459Z,98992.42
2023-04-21T04:35:02.210Z,98991.40
2023-04-21T04:38:07.664Z,98992.67
2023-04-21T04:41:12.926Z,98989.41
2023-04-21T04:44:18.703Z,98989.42
2023-04-21T04:47:24.942Z,98987.00
2023-04-21T04:50:22.790Z,98986.23
2023-04-21T04:53:22.261Z,98984.99
2023-04-21T04:56:27.347Z,98989.65
2023-04-21T04:59:32.449Z,98989.63
2023-04-21T05:02:38.077Z,98987.11
2023-04-21T05:05:43.296Z,98987.63
2023-04-21T05:08:48.661Z,98995.95
2023-04-21T05:11:54.379Z,98985.33
2023-04-21T05:15:00.386Z,98995.77
2023-04-21T05:18:07.644Z,98999.64
2023-04-21T05:21:12.493Z,98996.36
2023-04-21T05:24:18.229Z,98988.19
2023-04-21T05:27:24.427Z,98991.77
2023-04-21T05:30:29.653Z,98987.25
2023-04-21T05:33:34.697Z,98985.24
2023-04-21T05:36:39.522Z,98984.08
2023-04-21T05:39:44.909Z,98984.08
2023-04-21T05:42:50.330Z,98990.61
2023-04-21T05:45:57.255Z,98982.61
2023-04-21T05:49:02.769Z,98989.97
2023-04-21T05:52:08.216Z,98986.52
2023-04-21T05:55:13.733Z,98981.13
2023-04-21T05:58:18.671Z,98982.59
2023-04-21T06:01:24.295Z,98980.08
2023-04-21T06:04:31.510Z,98985.02
2023-04-21T06:07:37.808Z,98974.70
2023-04-21T06:10:37.017Z,98977.73
2023-04-21T06:13:43.675Z,98979.50
2023-04-21T06:16:50.115Z,98974.67
2023-04-21T06:19:57.030Z,98977.27
2023-04-21T06:23:02.600Z,98977.46
2023-04-21T06:26:18.835Z,98977.00
2023-04-21T06:29:24.233Z,98982.73
2023-04-21T06:32:29.197Z,98982.98
2023-04-21T06:35:34.812Z,98984.48
2023-04-21T06:38:40.512Z,98984.70
2023-04-21T06:41:44.820Z,98985.71
2023-04-21T06:44:51.011Z,98983.27
2023-04-21T06:47:59.732Z,98987.30
2023-04-21T06:51:05.114Z,98986.16
2023-04-21T06:54:09.993Z,98983.95
2023-04-21T06:57:14.760Z,98988.62
2023-04-21T07:00:23.078Z,98987.34
2023-04-21T07:03:29.225Z,98985.63
2023-04-21T07:06:35.029Z,98989.11
2023-04-21T07:09:41.508Z,98982.21
2023-04-21T07:12:47.085Z,98988.13
2023-04-21T07:15:52.782Z,98991.62
2023-04-21T07:18:59.299Z,98992.52
2023-04-21T07:22:06.388Z,98986.57
2023-04-21T07:25:08.755Z,98987.20
2023-04-21T07:28:16.028Z,98987.16
2023-04-21T07:31:22.732Z,98986.75
2023-04-21T07:34:29.511Z,98988.28
2023-04-21T07:37:35.387Z,98987.17
2023-04-21T07:40:41.184Z,98985.55
2023-04-21T07:43:47.003Z,98987.16
2023-04-21T07:46:52.771Z,98997.28
2023-04-21T07:49:59.674Z,98993.00
2023-04-21T07:53:06.114Z,99002.72
2023-04-21T07:56:14.123Z,98998.12
2023-04-21T07:59:19.458Z,99003.43
2023-04-21T08:02:25.347Z,99004.57
2023-04-21T08:05:33.991Z,99004.80
2023-04-21T08:08:39.255Z,99005.45
2023-04-21T08:11:46.917Z,99005.41
2023-04-21T08:14:54.681Z,99006.00
2023-04-21T08:18:02.352Z,99007.60
2023-04-21T08:21:09.253Z,99009.08
2023-04-21T08:24:15.784Z,99007.55
2023-04-21T08:27:14.711Z,99011.36
2023-04-21T08:30:21.257Z,98998.97
2023-04-21T08:33:26.941Z,99008.31
2023-04-21T08:36:32.897Z,99004.14
2023-04-21T08:39:37.973Z,99001.14
2023-04-21T08:42:44.528Z,99007.69
2023-04-21T08:45:50.004Z,99000.27
2023-04-21T08:48:55.671Z,98998.12
2023-04-21T08:52:02.190Z,99002.01
2023-04-21T08:55:07.342Z,98997.52
2023-04-21T08:58:14.218Z,99001.50
2023-04-21T09:01:20.789Z,98991.36
2023-04-21T09:04:33.061Z,98998.54
2023-04-21T09:07:57.520Z,98996.17
2023-04-21T09:11:08.307Z,98994.97
2023-04-21T09:14:14.404Z,98998.80
2023-04-21T09:17:20.361Z,98996.83
2023-04-21T09:20:33.933Z,99004.84
2023-04-21T09:23:38.988Z,99002.55
2023-04-21T09:26:44.746Z,98997.73
2023-04-21T09:29:49.586Z,98995.83
2023-04-21T09:32:55.448Z,98994.00
2023-04-21T09:36:00.054Z,98988.20
2023-04-21T09:42:17.603Z,98993.16
2023-04-21T09:45:36.955Z,99001.65
2023-04-21T09:48:30.687Z,99004.61
2023-04-21T09:54:41.363Z,98994.92
2023-04-21T09:57:39.883Z,98997.26
2023-04-21T10:00:46.525Z,98996.69
2023-04-21T10:03:53.783Z,98992.34
2023-04-21T10:07:01.444Z,98991.86
2023-04-21T10:10:09.529Z,98983.28
2023-04-21T10:13:15.570Z,98985.64
2023-04-21T10:16:24.755Z,98982.41
2023-04-21T10:19:42.497Z,98980.94
2023-04-21T10:22:49.027Z,98984.28
2023-04-21T10:25:54.649Z,98980.80
2023-04-21T10:29:02.391Z,98985.89
2023-04-21T10:32:09.498Z,98982.05
2023-04-21T10:35:14.666Z,98981.88
2023-04-21T10:38:21.531Z,98975.95
2023-04-21T10:41:48.511Z,98982.55
2023-04-21T10:45:01.575Z,98983.32
2023-04-21T10:48:09.925Z,98985.78
2023-04-21T10:51:16.033Z,98988.22
2023-04-21T10:54:21.805Z,98986.61
2023-04-21T10:57:32.652Z,98983.54
2023-04-21T11:00:39.098Z,98992.61
2023-04-21T11:03:51.365Z,99000.77
2023-04-21T11:06:56.864Z,98990.31
2023-04-21T11:10:05.504Z,98995.18
2023-04-21T11:13:12.642Z,98994.89
2023-04-21T11:16:20.015Z,98995.66
2023-04-21T11:19:27.970Z,98997.44
2023-04-21T11:22:33.701Z,99002.84
2023-04-21T11:25:38.837Z,98998.96
2023-04-21T11:28:44.169Z,98998.92
2023-04-21T11:31:52.503Z,99004.36
2023-04-21T11:34:58.508Z,99005.95
2023-04-21T11:38:06.052Z,99005.12
2023-04-21T11:41:11.560Z,99004.26
2023-04-21T11:44:17.211Z,99001.13
2023-04-21T11:47:39.519Z,99000.16
2023-04-21T11:50:45.417Z,99001.25
2023-04-21T11:53:49.839Z,99006.12
2023-04-21T11:57:01.895Z,99002.84
2023-04-21T12:00:05.354Z,99005.63
2023-04-21T12:03:11.957Z,99009.41
2023-04-21T12:06:17.381Z,99005.39
2023-04-21T12:09:22.606Z,99004.72
2023-04-21T12:12:29.235Z,99009.30
2023-04-21T12:15:35.068Z,99016.66
2023-04-21T12:18:45.265Z,99018.03
2023-04-21T12:21:52.970Z,99015.83
2023-04-21T12:25:00.443Z,99010.03
2023-04-21T12:28:13.582Z,99009.72
2023-04-21T12:31:21.240Z,99012.41
2023-04-21T12:34:26.681Z,99015.39
2023-04-21T12:37:32.788Z,99016.59
2023-04-21T12:40:38.333Z,99014.53
2023-04-21T12:43:45.098Z,99015.95
2023-04-21T12:46:50.464Z,99019.57
2023-04-21T12:49:56.424Z,99015.02
2023-04-21T12:53:03.068Z,99015.16
2023-04-21T12:56:08.584Z,99015.13
2023-04-21T12:59:14.438Z,99012.55
2023-04-21T13:02:20.648Z,99012.16
2023-04-21T13:05:26.631Z,99012.85
2023-04-21T13:08:31.320Z,99014.02
2023-04-21T13:11:36.462Z,99010.44
2023-04-21T13:14:42.528Z,99010.58
2023-04-21T13:17:49.493Z,99008.23
2023-04-21T13:20:56.194Z,99000.97
2023-04-21T13:24:03.073Z,98998.56
2023-04-21T13:27:09.820Z,99001.70
2023-04-21T13:30:15.588Z,99001.70
2023-04-21T13:33:21.440Z,99009.23
2023-04-21T13:36:27.239Z,99000.39
2023-04-21T13:39:33.215Z,99012.55
2023-04-21T13:42:40.529Z,99000.03
2023-04-21T13:45:45.583Z,99007.17
2023-04-21T13:48:50.476Z,98999.48
2023-04-21T13:51:55.730Z,99012.25
2023-04-21T13:55:01.583Z,99009.16
2023-04-21T13:58:09.772Z,99013.84
2023-04-21T14:01:14.747Z,99013.13
2023-04-21T14:04:20.698Z,99014.80
2023-04-21T14:07:26.484Z,99015.41
2023-04-21T14:10:32.695Z,99014.09
2023-04-21T14:13:42.512Z,99021.70
2023-04-21T14:16:45.494Z,99018.55
2023-04-21T14:19:51.987Z,99023.42
2023-04-21T14:23:00.118Z,99025.36
2023-04-21T14:26:04.964Z,99027.45
2023-04-21T14:29:11.307Z,99027.11
2023-04-21T14:32:16.589Z,99022.09
2023-04-21T14:35:22.898Z,99023.53
2023-04-21T14:38:28.406Z,99025.13
2023-04-21T14:41:33.926Z,99025.55
2023-04-21T14:44:39.018Z,99034.19
2023-04-21T14:47:44.265Z,99022.09
2023-04-21T14:50:49.196Z,99028.94
2023-04-21T14:53:54.475Z,99035.89
2023-04-21T14:56:58.089Z,99036.84
2023-04-21T14:59:59.369Z,99042.02
2023-04-21T15:03:05.298Z,99044.75
2023-04-21T15:06:10.465Z,99044.36
2023-04-21T15:09:15.808Z,99042.34
2023-04-21T15:12:21.855Z,99042.88
2023-04-21T15:15:27.552Z,99045.22
2023-04-21T15:18:27.133Z,99051.52
2023-04-21T15:21:33.958Z,99045.41
2023-04-21T15:24:38.959Z,99056.80
2023-04-21T15:27:44.307Z,99050.79
2023-04-21T15:30:49.685Z,99053.88
2023-04-21T15:33:57.796Z,99049.22
2023-04-21T15:37:03.129Z,99053.42
2023-04-21T15:40:08.954Z,99048.60
2023-04-21T15:43:15.652Z,99046.58
2023-04-21T15:46:21.860Z,99042.70
2023-04-21T15:49:27.353Z,99045.01
2023-04-21T15:52:33.280Z,99041.75
2023-04-21T15:55:39.285Z,99054.38
2023-04-21T15:58:45.168Z,99065.95
2023-04-21T16:01:51.487Z,99051.98
2023-04-21T16:04:58.558Z,99059.94
2023-04-21T16:08:05.438Z,99063.22
2023-04-21T16:11:11.643Z,99063.31
2023-04-21T16:14:18.077Z,99063.09
2023-04-21T16:17:25.557Z,99067.20
2023-04-21T16:20:29.515Z,99063.72
2023-04-21T16:23:35.638Z,99061.20
2023-04-21T16:26:43.058Z,99067.83
2023-04-21T16:29:48.841Z,99070.97
2023-04-21T16:32:55.756Z,99071.80
2023-04-21T16:36:10.260Z,99065.49
2023-04-21T16:39:15.527Z,99071.36
2023-04-21T16:42:20.747Z,99076.84
2023-04-21T16:45:26.890Z,99068.11
2023-04-21T16:48:32.430Z,99073.79
2023-04-21T16:51:39.170Z,99069.38
2023-04-21T16:54:44.062Z,99077.55
2023-04-21T16:57:49.331Z,99070.52
2023-04-21T17:00:54.945Z,99078.30
2023-04-21T17:04:00.345Z,99082.27
2023-04-21T17:07:07.035Z,99083.62
2023-04-21T17:10:12.819Z,99084.64
2023-04-21T17:13:19.720Z,99087.20
2023-04-21T17:16:24.886Z,99081.81
2023-04-21T17:19:31.289Z,99090.02
2023-04-21T17:22:36.324Z,99089.96
2023-04-21T17:25:41.404Z,99092.28
2023-04-21T17:28:46.487Z,99091.86
2023-04-21T17:31:52.989Z,99090.70
2023-04-21T17:35:01.345Z,99091.23
2023-04-21T17:38:05.722Z,99087.76
2023-04-21T17:41:06.305Z,99091.33
2023-04-21T17:44:11.882Z,99092.81
2023-04-21T17:47:17.645Z,99095.43
2023-04-21T17:50:25.623Z,99090.84
2023-04-21T17:53:31.476Z,99093.67
2023-04-21T17:56:38.947Z,99100.22
2023-04-21T17:59:46.227Z,99097.62
2023-04-21T18:02:52.465Z,99100.66
2023-04-21T18:05:57.807Z,99104.05
2023-04-21T18:09:03.163Z,99101.85
2023-04-21T18:12:08.253Z,99099.55
2023-04-21T18:15:16.354Z,99100.59
2023-04-21T18:18:21.553Z,99099.73
2023-04-21T18:21:28.819Z,99106.45
2023-04-21T18:24:33.577Z,99100.91
2023-04-21T18:27:38.962Z,99100.41
2023-04-21T18:30:45.120Z,99106.27
2023-04-21T18:33:51.510Z,99098.77
2023-04-21T18:36:50.436Z,99091.27
2023-04-21T18:39:43.118Z,99100.41
2023-04-21T18:42:48.849Z,99095.45
2023-04-21T18:45:54.735Z,99100.25
2023-04-21T18:49:12.848Z,99101.52
2023-04-21T18:52:18.571Z,99094.27
2023-04-21T18:55:25.134Z,99093.84
2023-04-21T18:58:31.000Z,99097.34
2023-04-21T19:01:36.867Z,99085.83
2023-04-21T19:04:42.510Z,99089.98
2023-04-21T19:07:49.044Z,99092.19
2023-04-21T19:10:55.262Z,99094.01
2023-04-21T19:14:01.323Z,99089.91
2023-04-21T19:17:07.169Z,99093.56
2023-04-21T19:20:13.602Z,99088.94
2023-04-21T19:23:19.781Z,99094.09
2023-04-21T19:26:25.538Z,99089.83
2023-04-21T19:29:31.581Z,99089.44
2023-04-21T19:32:37.295Z,99084.90
2023-04-21T19:35:44.337Z,99089.39
2023-04-21T19:38:49.558Z,99088.60
2023-04-21T19:41:56.990Z,99083.74
2023-04-21T19:45:03.144Z,99090.07
2023-04-21T19:48:09.185Z,99082.48
2023-04-21T19:51:15.298Z,99088.68
2023-04-21T19:54:21.331Z,99088.08
2023-04-21T19:57:27.025Z,99086.31
2023-04-21T20:00:32.412Z,99089.12
2023-04-21T20:03:38.818Z,99084.23
2023-04-21T20:06:45.064Z,99085.84
2023-04-21T20:09:50.812Z,99083.32
2023-04-21T20:12:56.505Z,99086.02
2023-04-21T20:16:02.125Z,99085.66
2023-04-21T20:19:09.076Z,99082.27
2023-04-21T20:22:14.969Z,99081.75
2023-04-21T20:25:20.902Z,99087.03
2023-04-21T20:28:25.876Z,99082.76
2023-04-21T20:31:32.236Z,99088.68
2023-04-21T20:34:37.464Z,99087.56
2023-04-21T20:37:44.058Z,99088.75
2023-04-21T20:40:42.861Z,99081.40
2023-04-21T20:43:29.168Z,99092.04
2023-04-21T20:46:22.673Z,99082.34
2023-04-21T20:49:27.869Z,99088.68
2023-04-21T20:52:33.745Z,99086.37
2023-04-21T20:55:39.466Z,99099.32
2023-04-21T20:58:46.078Z,99094.17
2023-04-21T21:01:52.347Z,99091.59
2023-04-21T21:04:58.912Z,99093.66
2023-04-21T21:08:04.590Z,99094.64
2023-04-21T21:11:09.895Z,99095.88
2023-04-21T21:14:15.678Z,99096.61
2023-04-21T21:17:23.066Z,99095.63
2023-04-21T21:20:28.769Z,99103.89
2023-04-21T21:23:35.586Z,99101.65
2023-04-21T21:26:42.544Z,99107.45
2023-04-21T21:29:47.680Z,99106.84
2023-04-21T21:32:54.602Z,99109.20
2023-04-21T21:36:00.244Z,99117.27
2023-04-21T21:39:07.757Z,99114.25
2023-04-21T21:42:13.757Z,99118.86
2023-04-21T21:45:20.803Z,99122.84
2023-04-21T21:48:26.713Z,99118.40
2023-04-21T21:51:31.910Z,99123.27
2023-04-21T21:54:37.689Z,99123.07
2023-04-21T21:57:43.605Z,99119.23
2023-04-21T22:00:49.580Z,99123.06
2023-04-21T22:03:55.647Z,99131.30
2023-04-21T22:07:01.128Z,99131.13
2023-04-21T22:10:06.998Z,99137.89
2023-04-21T22:13:12.337Z,99130.14
2023-04-21T22:16:19.208Z,99129.30
2023-04-21T22:19:26.438Z,99126.78
2023-04-21T22:22:31.090Z,99129.56
2023-04-21T22:25:36.283Z,99124.52
2023-04-21T22:28:41.093Z,99129.25
2023-04-21T22:31:46.609Z,99127.98
2023-04-21T22:34:53.034Z,99135.28
2023-04-21T22:37:59.314Z,99140.16
2023-04-21T22:41:05.959Z,99136.59
2023-04-21T22:44:12.214Z,99128.88
2023-04-21T22:47:19.440Z,99131.13
2023-04-21T22:50:26.956Z,99136.91
2023-04-21T22:53:33.324Z,99141.31
2023-04-21T22:56:38.592Z,99147.12
2023-04-21T22:59:45.055Z,99146.59
2023-04-21T23:02:44.157Z,99141.84
2023-04-21T23:05:50.159Z,99134.96
2023-04-21T23:08:54.795Z,99138.33
2023-04-21T23:12:00.636Z,99137.48
2023-04-21T23:15:06.455Z,99137.84
2023-04-21T23:18:12.552Z,99140.04
2023-04-21T23:21:18.993Z,99135.34
2023-04-21T23:24:24.521Z,99139.42
2023-04-21T23:27:30.288Z,99135.48
2023-04-21T23:30:36.763Z,99141.66
2023-04-21T23:33:43.327Z,99138.94
2023-04-21T23:36:48.621Z,99141.52
2023-04-21T23:39:54.588Z,99139.58
2023-04-21T23:43:00.836Z,99139.52
2023-04-21T23:46:06.416Z,99141.66
2023-04-21T23:49:11.883Z,99136.33
2023-04-21T23:52:16.948Z,99139.66
2023-04-21T23:55:23.265Z,99142.65
2023-04-21T23:58:28.664Z,99151.67
